AAL514 KPVU-KLAX
Flight info
| Callsign | AAL514 |
|---|---|
| Flight time | 1h 25m |
| Altitude | 36000 |
| Route | DITTI1 DAHLI MLF EHK LAKRR Q73 HAKMN ANJLL4 |
| Aircraft | A320/M-SDE3FGHIRWY/LB1 |
Departure
| Time | 2026-04-19 23:48 |
|---|---|
| Airport | Provo Municipal Airport (KPVU) |
Arrival
| Time | 2026-04-20 01:13 |
|---|---|
| Airport | Los Angeles International Airport (KLAX) |
| Time | Latitude | Longitude | Altitude | Speed | Heading |
|---|---|---|---|---|---|
| 2026-04-19 22:53 | 40.21304 | -111.71275 | 4499 ft | 0 kts | 55° |
| 2026-04-19 23:36 | 40.21301 | -111.71282 | 4498 ft | 4 kts | 55° |
| 2026-04-19 23:36 | 40.21285 | -111.71311 | 4499 ft | 4 kts | 56° |
| 2026-04-19 23:36 | 40.21273 | -111.71335 | 4501 ft | 1 kts | 56° |
| 2026-04-19 23:37 | 40.21273 | -111.71336 | 4501 ft | 0 kts | 56° |
| 2026-04-19 23:43 | 40.21286 | -111.71330 | 4500 ft | 4 kts | 0° |
| 2026-04-19 23:43 | 40.21323 | -111.71365 | 4498 ft | 10 kts | 324° |
| 2026-04-19 23:43 | 40.21363 | -111.71426 | 4498 ft | 10 kts | 266° |
| 2026-04-19 23:44 | 40.21329 | -111.71501 | 4500 ft | 8 kts | 230° |
| 2026-04-19 23:44 | 40.21261 | -111.71467 | 4500 ft | 14 kts | 144° |
| 2026-04-19 23:44 | 40.21174 | -111.71388 | 4501 ft | 14 kts | 158° |
| 2026-04-19 23:44 | 40.21116 | -111.71437 | 4499 ft | 18 kts | 235° |
| 2026-04-19 23:45 | 40.21071 | -111.71599 | 4498 ft | 19 kts | 252° |
| 2026-04-19 23:45 | 40.21027 | -111.71759 | 4499 ft | 19 kts | 250° |
| 2026-04-19 23:45 | 40.20983 | -111.71918 | 4501 ft | 18 kts | 249° |
| 2026-04-19 23:45 | 40.20942 | -111.72072 | 4502 ft | 18 kts | 250° |
| 2026-04-19 23:46 | 40.20884 | -111.72282 | 4503 ft | 18 kts | 249° |
| 2026-04-19 23:46 | 40.20860 | -111.72368 | 4506 ft | 14 kts | 251° |
| 2026-04-19 23:46 | 40.20855 | -111.72409 | 4504 ft | 0 kts | 269° |
| 2026-04-19 23:47 | 40.20855 | -111.72429 | 4504 ft | 7 kts | 269° |
| 2026-04-19 23:47 | 40.20870 | -111.72508 | 4506 ft | 10 kts | 316° |
| 2026-04-19 23:47 | 40.20900 | -111.72512 | 4506 ft | 5 kts | 15° |
| 2026-04-19 23:47 | 40.21126 | -111.72446 | 4505 ft | 70 kts | 11° |
| 2026-04-19 23:48 | 40.21829 | -111.72262 | 4499 ft | 133 kts | 11° |
| 2026-04-19 23:48 | 40.22868 | -111.71968 | 4726 ft | 155 kts | 11° |
| 2026-04-19 23:48 | 40.23885 | -111.71710 | 5388 ft | 150 kts | 355° |
| 2026-04-19 23:48 | 40.24888 | -111.72155 | 5733 ft | 161 kts | 321° |
| 2026-04-19 23:49 | 40.25694 | -111.73474 | 5429 ft | 227 kts | 293° |
| 2026-04-19 23:49 | 40.26372 | -111.75628 | 5653 ft | 268 kts | 300° |
| 2026-04-19 23:49 | 40.27419 | -111.77749 | 6637 ft | 283 kts | 299° |
| 2026-04-19 23:49 | 40.28081 | -111.80169 | 7777 ft | 286 kts | 272° |
| 2026-04-19 23:50 | 40.27761 | -111.82783 | 8567 ft | 306 kts | 244° |
| 2026-04-19 23:50 | 40.26406 | -111.85089 | 8880 ft | 339 kts | 217° |
| 2026-04-19 23:50 | 40.24253 | -111.86431 | 8974 ft | 342 kts | 191° |
| 2026-04-19 23:50 | 40.21975 | -111.86385 | 9002 ft | 322 kts | 170° |
| 2026-04-19 23:51 | 40.19964 | -111.85864 | 8998 ft | 306 kts | 169° |
| 2026-04-19 23:51 | 40.17931 | -111.85332 | 9000 ft | 289 kts | 170° |
| 2026-04-19 23:51 | 40.15960 | -111.85200 | 9004 ft | 283 kts | 187° |
| 2026-04-19 23:51 | 40.14033 | -111.85515 | 9001 ft | 282 kts | 188° |
| 2026-04-19 23:52 | 40.12083 | -111.85842 | 8995 ft | 282 kts | 188° |
| 2026-04-19 23:52 | 40.10136 | -111.86173 | 8987 ft | 283 kts | 188° |
| 2026-04-19 23:52 | 40.08164 | -111.86508 | 9515 ft | 287 kts | 188° |
| 2026-04-19 23:52 | 40.06181 | -111.86845 | 10316 ft | 291 kts | 188° |
| 2026-04-19 23:53 | 40.04099 | -111.87201 | 10563 ft | 314 kts | 188° |
| 2026-04-19 23:53 | 40.01881 | -111.87580 | 11032 ft | 326 kts | 188° |
| 2026-04-19 23:53 | 39.99614 | -111.87966 | 11717 ft | 330 kts | 189° |
| 2026-04-19 23:53 | 39.97327 | -111.88351 | 12459 ft | 333 kts | 189° |
| 2026-04-19 23:54 | 39.95021 | -111.88736 | 13189 ft | 336 kts | 189° |
| 2026-04-19 23:54 | 39.92691 | -111.89125 | 13904 ft | 338 kts | 189° |
| 2026-04-19 23:54 | 39.90346 | -111.89519 | 14538 ft | 342 kts | 189° |
| 2026-04-19 23:54 | 39.87977 | -111.89916 | 15146 ft | 345 kts | 189° |
| 2026-04-19 23:55 | 39.85585 | -111.90318 | 15752 ft | 348 kts | 189° |
| 2026-04-19 23:55 | 39.83173 | -111.90727 | 16346 ft | 351 kts | 189° |
| 2026-04-19 23:55 | 39.80737 | -111.91140 | 16951 ft | 354 kts | 188° |
| 2026-04-19 23:55 | 39.78279 | -111.91556 | 17541 ft | 358 kts | 188° |
| 2026-04-19 23:56 | 39.75796 | -111.91974 | 18123 ft | 361 kts | 188° |
| 2026-04-19 23:56 | 39.73325 | -111.92400 | 18638 ft | 365 kts | 190° |
| 2026-04-19 23:56 | 39.70869 | -111.93233 | 19142 ft | 367 kts | 201° |
| 2026-04-19 23:56 | 39.68568 | -111.94683 | 19667 ft | 369 kts | 212° |
| 2026-04-19 23:57 | 39.66394 | -111.96466 | 20199 ft | 371 kts | 212° |
| 2026-04-19 23:57 | 39.64204 | -111.98273 | 20729 ft | 374 kts | 212° |
| 2026-04-19 23:57 | 39.62002 | -112.00091 | 21254 ft | 376 kts | 212° |
| 2026-04-19 23:57 | 39.59784 | -112.01917 | 21777 ft | 379 kts | 212° |
| 2026-04-19 23:58 | 39.57547 | -112.03753 | 22293 ft | 382 kts | 212° |
| 2026-04-19 23:58 | 39.55291 | -112.05603 | 22803 ft | 385 kts | 212° |
| 2026-04-19 23:58 | 39.53015 | -112.07467 | 23293 ft | 388 kts | 212° |
| 2026-04-19 23:58 | 39.50725 | -112.09341 | 23751 ft | 391 kts | 212° |
| 2026-04-19 23:59 | 39.48421 | -112.11226 | 24159 ft | 393 kts | 212° |
| 2026-04-19 23:59 | 39.46068 | -112.13145 | 24582 ft | 395 kts | 212° |
| 2026-04-19 23:59 | 39.43766 | -112.15018 | 24987 ft | 397 kts | 212° |
| 2026-04-19 23:59 | 39.41428 | -112.16923 | 25392 ft | 398 kts | 212° |
| 2026-04-20 00:00 | 39.39079 | -112.18836 | 25780 ft | 400 kts | 212° |
| 2026-04-20 00:00 | 39.36723 | -112.20756 | 26160 ft | 401 kts | 212° |
| 2026-04-20 00:00 | 39.34355 | -112.22687 | 26547 ft | 403 kts | 212° |
| 2026-04-20 00:00 | 39.31976 | -112.24624 | 26924 ft | 405 kts | 212° |
| 2026-04-20 00:01 | 39.29591 | -112.26563 | 27268 ft | 406 kts | 212° |
| 2026-04-20 00:01 | 39.27195 | -112.28507 | 27640 ft | 408 kts | 212° |
| 2026-04-20 00:01 | 39.22362 | -112.32414 | 28348 ft | 412 kts | 213° |
| 2026-04-20 00:02 | 39.19927 | -112.34381 | 28683 ft | 414 kts | 213° |
| 2026-04-20 00:02 | 39.17486 | -112.36354 | 29019 ft | 415 kts | 213° |
| 2026-04-20 00:02 | 39.15034 | -112.38337 | 29339 ft | 417 kts | 213° |
| 2026-04-20 00:02 | 39.12572 | -112.40328 | 29659 ft | 419 kts | 213° |
| 2026-04-20 00:03 | 39.10095 | -112.42327 | 29969 ft | 421 kts | 213° |
| 2026-04-20 00:03 | 39.07610 | -112.44330 | 30245 ft | 423 kts | 213° |
| 2026-04-20 00:03 | 39.05116 | -112.46343 | 30490 ft | 424 kts | 213° |
| 2026-04-20 00:03 | 39.02610 | -112.48364 | 30734 ft | 425 kts | 213° |
| 2026-04-20 00:04 | 39.00098 | -112.50386 | 30969 ft | 427 kts | 213° |
| 2026-04-20 00:04 | 38.97576 | -112.52410 | 31217 ft | 427 kts | 213° |
| 2026-04-20 00:04 | 38.95061 | -112.54428 | 31559 ft | 425 kts | 212° |
| 2026-04-20 00:04 | 38.92551 | -112.56440 | 31894 ft | 424 kts | 212° |
| 2026-04-20 00:05 | 38.90053 | -112.58440 | 32223 ft | 423 kts | 212° |
| 2026-04-20 00:05 | 38.87564 | -112.60433 | 32549 ft | 421 kts | 212° |
| 2026-04-20 00:05 | 38.85078 | -112.62423 | 32864 ft | 420 kts | 212° |
| 2026-04-20 00:05 | 38.82637 | -112.64376 | 33184 ft | 419 kts | 212° |
| 2026-04-20 00:06 | 38.80154 | -112.66359 | 33513 ft | 418 kts | 212° |
| 2026-04-20 00:06 | 38.77690 | -112.68326 | 33831 ft | 416 kts | 212° |
| 2026-04-20 00:06 | 38.75234 | -112.70283 | 34126 ft | 415 kts | 212° |
| 2026-04-20 00:06 | 38.72781 | -112.72236 | 34388 ft | 414 kts | 212° |
| 2026-04-20 00:07 | 38.70337 | -112.74181 | 34652 ft | 413 kts | 212° |
| 2026-04-20 00:07 | 38.67890 | -112.76125 | 34909 ft | 413 kts | 212° |
| 2026-04-20 00:07 | 38.65456 | -112.78058 | 35162 ft | 412 kts | 212° |
| 2026-04-20 00:07 | 38.63018 | -112.79988 | 35405 ft | 411 kts | 212° |
| 2026-04-20 00:08 | 38.60589 | -112.81911 | 35638 ft | 410 kts | 212° |
| 2026-04-20 00:08 | 38.58165 | -112.83833 | 35860 ft | 410 kts | 212° |
| 2026-04-20 00:08 | 38.55774 | -112.85733 | 36008 ft | 410 kts | 212° |
| 2026-04-20 00:09 | 38.50959 | -112.89556 | 36052 ft | 406 kts | 212° |
| 2026-04-20 00:09 | 38.46136 | -112.93366 | 36064 ft | 405 kts | 212° |
| 2026-04-20 00:10 | 38.41331 | -112.97144 | 36063 ft | 405 kts | 212° |
| 2026-04-20 00:10 | 38.36375 | -113.00552 | 36061 ft | 407 kts | 200° |
| 2026-04-20 00:11 | 38.30800 | -113.01836 | 36054 ft | 410 kts | 186° |
| 2026-04-20 00:11 | 38.25105 | -113.02362 | 36031 ft | 411 kts | 187° |
| 2026-04-20 00:12 | 38.19439 | -113.02915 | 36016 ft | 411 kts | 187° |
| 2026-04-20 00:12 | 38.13744 | -113.03477 | 36004 ft | 411 kts | 187° |
| 2026-04-20 00:13 | 38.08046 | -113.04029 | 35995 ft | 411 kts | 187° |
| 2026-04-20 00:13 | 38.02340 | -113.04575 | 36000 ft | 411 kts | 187° |
| 2026-04-20 00:14 | 37.96635 | -113.05111 | 36029 ft | 411 kts | 187° |
| 2026-04-20 00:14 | 37.90938 | -113.05655 | 36054 ft | 411 kts | 187° |
| 2026-04-20 00:15 | 37.85236 | -113.06208 | 36073 ft | 410 kts | 187° |
| 2026-04-20 00:15 | 37.79584 | -113.07072 | 36092 ft | 407 kts | 197° |
| 2026-04-20 00:16 | 37.74458 | -113.09957 | 36095 ft | 404 kts | 211° |
| 2026-04-20 00:16 | 37.69597 | -113.13537 | 36095 ft | 404 kts | 211° |
| 2026-04-20 00:17 | 37.64725 | -113.17093 | 36094 ft | 405 kts | 211° |
| 2026-04-20 00:17 | 37.59852 | -113.20643 | 36077 ft | 405 kts | 210° |
| 2026-04-20 00:18 | 37.54977 | -113.24197 | 36050 ft | 405 kts | 211° |
| 2026-04-20 00:18 | 37.50105 | -113.27750 | 36023 ft | 405 kts | 211° |
| 2026-04-20 00:19 | 37.45226 | -113.31295 | 35987 ft | 405 kts | 210° |
| 2026-04-20 00:19 | 37.40340 | -113.34837 | 35956 ft | 405 kts | 210° |
| 2026-04-20 00:20 | 37.35447 | -113.38383 | 35946 ft | 405 kts | 211° |
| 2026-04-20 00:20 | 37.30586 | -113.41916 | 35947 ft | 406 kts | 211° |
| 2026-04-20 00:21 | 37.25710 | -113.45452 | 35948 ft | 406 kts | 210° |
| 2026-04-20 00:21 | 37.20777 | -113.49007 | 35954 ft | 406 kts | 211° |
| 2026-04-20 00:22 | 37.15877 | -113.52533 | 35963 ft | 406 kts | 210° |
| 2026-04-20 00:22 | 37.11008 | -113.56031 | 35971 ft | 406 kts | 211° |
| 2026-04-20 00:23 | 37.06107 | -113.59556 | 35976 ft | 406 kts | 210° |
| 2026-04-20 00:23 | 37.01203 | -113.63067 | 35975 ft | 406 kts | 210° |
| 2026-04-20 00:24 | 36.96302 | -113.66575 | 35967 ft | 406 kts | 211° |
| 2026-04-20 00:24 | 36.91412 | -113.70085 | 35959 ft | 406 kts | 211° |
| 2026-04-20 00:25 | 36.86514 | -113.73588 | 35948 ft | 405 kts | 210° |
| 2026-04-20 00:25 | 36.81616 | -113.77082 | 35933 ft | 405 kts | 210° |
| 2026-04-20 00:26 | 36.76688 | -113.80589 | 35921 ft | 405 kts | 210° |
| 2026-04-20 00:26 | 36.72616 | -113.83479 | 35915 ft | 405 kts | 210° |
| 2026-04-20 00:27 | 36.66911 | -113.87519 | 35914 ft | 405 kts | 210° |
| 2026-04-20 00:27 | 36.62008 | -113.90994 | 35911 ft | 405 kts | 211° |
| 2026-04-20 00:28 | 36.57903 | -113.93909 | 35907 ft | 406 kts | 210° |
| 2026-04-20 00:28 | 36.53028 | -113.97355 | 35903 ft | 405 kts | 210° |
| 2026-04-20 00:29 | 36.48127 | -114.00818 | 35896 ft | 405 kts | 210° |
| 2026-04-20 00:29 | 36.43221 | -114.04284 | 35891 ft | 405 kts | 210° |
| 2026-04-20 00:30 | 36.38281 | -114.07764 | 35885 ft | 405 kts | 210° |
| 2026-04-20 00:30 | 36.33373 | -114.11207 | 35875 ft | 406 kts | 210° |
| 2026-04-20 00:31 | 36.28463 | -114.14655 | 35869 ft | 406 kts | 210° |
| 2026-04-20 00:31 | 36.23546 | -114.18104 | 35864 ft | 406 kts | 210° |
| 2026-04-20 00:32 | 36.18626 | -114.21546 | 35860 ft | 406 kts | 210° |
| 2026-04-20 00:32 | 36.13705 | -114.24980 | 35852 ft | 406 kts | 210° |
| 2026-04-20 00:33 | 36.08879 | -114.28599 | 35846 ft | 406 kts | 219° |
| 2026-04-20 00:33 | 36.04950 | -114.33586 | 35845 ft | 406 kts | 228° |
| 2026-04-20 00:34 | 36.01193 | -114.38801 | 35839 ft | 406 kts | 227° |
| 2026-04-20 00:34 | 35.97420 | -114.44009 | 35839 ft | 407 kts | 227° |
| 2026-04-20 00:35 | 35.93647 | -114.49220 | 35852 ft | 407 kts | 227° |
| 2026-04-20 00:35 | 35.89880 | -114.54423 | 35860 ft | 408 kts | 227° |
| 2026-04-20 00:36 | 35.86099 | -114.59633 | 35871 ft | 408 kts | 227° |
| 2026-04-20 00:36 | 35.82311 | -114.64845 | 35887 ft | 408 kts | 227° |
| 2026-04-20 00:37 | 35.78521 | -114.70056 | 35898 ft | 408 kts | 227° |
| 2026-04-20 00:37 | 35.74750 | -114.75227 | 35910 ft | 408 kts | 227° |
| 2026-04-20 00:38 | 35.70954 | -114.80421 | 35918 ft | 408 kts | 227° |
| 2026-04-20 00:38 | 35.67152 | -114.85612 | 35926 ft | 408 kts | 227° |
| 2026-04-20 00:39 | 35.63355 | -114.90802 | 35934 ft | 408 kts | 227° |
| 2026-04-20 00:39 | 35.59571 | -114.95992 | 35938 ft | 408 kts | 227° |
| 2026-04-20 00:40 | 35.55775 | -115.01168 | 35943 ft | 407 kts | 227° |
| 2026-04-20 00:40 | 35.51979 | -115.06337 | 35947 ft | 407 kts | 227° |
| 2026-04-20 00:41 | 35.48156 | -115.11484 | 35940 ft | 412 kts | 226° |
| 2026-04-20 00:41 | 35.44177 | -115.16653 | 35942 ft | 421 kts | 225° |
| 2026-04-20 00:42 | 35.40121 | -115.21894 | 35943 ft | 425 kts | 226° |
| 2026-04-20 00:42 | 35.36066 | -115.27165 | 35946 ft | 425 kts | 226° |
| 2026-04-20 00:43 | 35.32009 | -115.32433 | 35947 ft | 425 kts | 226° |
| 2026-04-20 00:43 | 35.27949 | -115.37693 | 35948 ft | 425 kts | 226° |
| 2026-04-20 00:44 | 35.23890 | -115.42957 | 35947 ft | 425 kts | 226° |
| 2026-04-20 00:44 | 35.19827 | -115.48221 | 35946 ft | 426 kts | 226° |
| 2026-04-20 00:45 | 35.15758 | -115.53475 | 35949 ft | 426 kts | 226° |
| 2026-04-20 00:45 | 35.11683 | -115.58732 | 35939 ft | 426 kts | 226° |
| 2026-04-20 00:46 | 35.07603 | -115.63978 | 35934 ft | 426 kts | 226° |
| 2026-04-20 00:46 | 35.03515 | -115.69225 | 35926 ft | 426 kts | 226° |
| 2026-04-20 00:47 | 34.99423 | -115.74471 | 35919 ft | 427 kts | 226° |
| 2026-04-20 00:47 | 34.95326 | -115.79717 | 35910 ft | 427 kts | 226° |
| 2026-04-20 00:48 | 34.91229 | -115.84963 | 35901 ft | 427 kts | 226° |
| 2026-04-20 00:48 | 34.87127 | -115.90206 | 35895 ft | 427 kts | 226° |
| 2026-04-20 00:49 | 34.83018 | -115.95445 | 35873 ft | 429 kts | 226° |
| 2026-04-20 00:49 | 34.78886 | -116.00708 | 35859 ft | 431 kts | 226° |
| 2026-04-20 00:50 | 34.74736 | -116.05979 | 35860 ft | 432 kts | 227° |
| 2026-04-20 00:50 | 34.70759 | -116.11020 | 35863 ft | 433 kts | 227° |
| 2026-04-20 00:51 | 34.66580 | -116.16309 | 35865 ft | 434 kts | 227° |
| 2026-04-20 00:51 | 34.62404 | -116.21601 | 35877 ft | 434 kts | 227° |
| 2026-04-20 00:52 | 34.58216 | -116.26897 | 35893 ft | 435 kts | 227° |
| 2026-04-20 00:52 | 34.56112 | -116.29552 | 35671 ft | 437 kts | 227° |
| 2026-04-20 00:52 | 34.54010 | -116.32202 | 35422 ft | 436 kts | 227° |
| 2026-04-20 00:52 | 34.51900 | -116.34858 | 35184 ft | 437 kts | 227° |
| 2026-04-20 00:53 | 34.49784 | -116.37523 | 34753 ft | 439 kts | 227° |
| 2026-04-20 00:53 | 34.47667 | -116.40192 | 34228 ft | 440 kts | 226° |
| 2026-04-20 00:53 | 34.45539 | -116.42874 | 33665 ft | 442 kts | 226° |
| 2026-04-20 00:53 | 34.43399 | -116.45563 | 33122 ft | 444 kts | 227° |
| 2026-04-20 00:54 | 34.41462 | -116.48477 | 32555 ft | 445 kts | 237° |
| 2026-04-20 00:54 | 34.39991 | -116.51770 | 31981 ft | 447 kts | 243° |
| 2026-04-20 00:54 | 34.38601 | -116.55147 | 31412 ft | 449 kts | 243° |
| 2026-04-20 00:54 | 34.37212 | -116.58536 | 30845 ft | 450 kts | 242° |
| 2026-04-20 00:55 | 34.35819 | -116.61934 | 30293 ft | 452 kts | 242° |
| 2026-04-20 00:55 | 34.34417 | -116.65346 | 29714 ft | 454 kts | 242° |
| 2026-04-20 00:55 | 34.33023 | -116.68729 | 29165 ft | 456 kts | 242° |
| 2026-04-20 00:55 | 34.31606 | -116.72213 | 28634 ft | 455 kts | 243° |
| 2026-04-20 00:56 | 34.30226 | -116.75650 | 28111 ft | 452 kts | 243° |
| 2026-04-20 00:56 | 34.28867 | -116.79053 | 27584 ft | 449 kts | 243° |
| 2026-04-20 00:56 | 34.27515 | -116.82440 | 27067 ft | 444 kts | 243° |
| 2026-04-20 00:56 | 34.26203 | -116.85710 | 26593 ft | 435 kts | 243° |
| 2026-04-20 00:57 | 34.24880 | -116.88994 | 25977 ft | 432 kts | 243° |
| 2026-04-20 00:57 | 34.23567 | -116.92244 | 25442 ft | 428 kts | 243° |
| 2026-04-20 00:57 | 34.22263 | -116.95459 | 24898 ft | 424 kts | 243° |
| 2026-04-20 00:57 | 34.21025 | -116.98673 | 24321 ft | 420 kts | 249° |
| 2026-04-20 00:58 | 34.20097 | -117.02006 | 23757 ft | 417 kts | 251° |
| 2026-04-20 00:58 | 34.19197 | -117.05327 | 23139 ft | 413 kts | 251° |
| 2026-04-20 00:58 | 34.18308 | -117.08614 | 22577 ft | 409 kts | 251° |
| 2026-04-20 00:58 | 34.17430 | -117.11873 | 22043 ft | 406 kts | 251° |
| 2026-04-20 00:59 | 34.16655 | -117.14757 | 21875 ft | 394 kts | 251° |
| 2026-04-20 00:59 | 34.15816 | -117.17872 | 21517 ft | 387 kts | 250° |
| 2026-04-20 00:59 | 34.14980 | -117.20939 | 21052 ft | 383 kts | 250° |
| 2026-04-20 00:59 | 34.14144 | -117.23978 | 20564 ft | 380 kts | 250° |
| 2026-04-20 01:00 | 34.13309 | -117.26998 | 20061 ft | 379 kts | 249° |
| 2026-04-20 01:00 | 34.12473 | -117.30008 | 19566 ft | 377 kts | 249° |
| 2026-04-20 01:00 | 34.11631 | -117.33037 | 19067 ft | 375 kts | 249° |
| 2026-04-20 01:00 | 34.10806 | -117.36007 | 18601 ft | 373 kts | 249° |
| 2026-04-20 01:01 | 34.10010 | -117.38936 | 18447 ft | 362 kts | 249° |
| 2026-04-20 01:01 | 34.09281 | -117.41794 | 18286 ft | 351 kts | 250° |
| 2026-04-20 01:01 | 34.08591 | -117.44600 | 17936 ft | 347 kts | 250° |
| 2026-04-20 01:01 | 34.07916 | -117.47380 | 17504 ft | 345 kts | 250° |
| 2026-04-20 01:02 | 34.07241 | -117.50142 | 17077 ft | 343 kts | 250° |
| 2026-04-20 01:02 | 34.06562 | -117.52889 | 16653 ft | 341 kts | 250° |
| 2026-04-20 01:02 | 34.05880 | -117.55616 | 16245 ft | 339 kts | 250° |
| 2026-04-20 01:02 | 34.05276 | -117.58016 | 15889 ft | 337 kts | 250° |
| 2026-04-20 01:03 | 34.04596 | -117.60713 | 15485 ft | 336 kts | 250° |
| 2026-04-20 01:03 | 34.03928 | -117.63363 | 15101 ft | 334 kts | 250° |
| 2026-04-20 01:03 | 34.03248 | -117.66072 | 14709 ft | 332 kts | 250° |
| 2026-04-20 01:03 | 34.02581 | -117.68737 | 14329 ft | 331 kts | 250° |
| 2026-04-20 01:04 | 34.01969 | -117.71404 | 13956 ft | 330 kts | 255° |
| 2026-04-20 01:04 | 34.01570 | -117.74099 | 13771 ft | 320 kts | 259° |
| 2026-04-20 01:04 | 34.01295 | -117.76650 | 13583 ft | 302 kts | 260° |
| 2026-04-20 01:04 | 34.01045 | -117.79121 | 13134 ft | 293 kts | 259° |
| 2026-04-20 01:05 | 34.00787 | -117.81484 | 12967 ft | 276 kts | 259° |
| 2026-04-20 01:05 | 34.00525 | -117.83673 | 12573 ft | 273 kts | 258° |
| 2026-04-20 01:05 | 34.00234 | -117.85917 | 12047 ft | 270 kts | 257° |
| 2026-04-20 01:05 | 33.99932 | -117.88140 | 11523 ft | 268 kts | 257° |
| 2026-04-20 01:06 | 33.99626 | -117.90341 | 11038 ft | 264 kts | 257° |
| 2026-04-20 01:06 | 33.99323 | -117.92503 | 10570 ft | 260 kts | 257° |
| 2026-04-20 01:06 | 33.99121 | -117.93926 | 10279 ft | 259 kts | 257° |
| 2026-04-20 01:06 | 33.98818 | -117.96059 | 9832 ft | 257 kts | 257° |
| 2026-04-20 01:07 | 33.98520 | -117.98165 | 9344 ft | 252 kts | 257° |
| 2026-04-20 01:07 | 33.98227 | -118.00230 | 8866 ft | 249 kts | 257° |
| 2026-04-20 01:07 | 33.97939 | -118.02273 | 8388 ft | 247 kts | 257° |
| 2026-04-20 01:07 | 33.97655 | -118.04301 | 7917 ft | 244 kts | 257° |
| 2026-04-20 01:08 | 33.97449 | -118.05773 | 7574 ft | 243 kts | 257° |
| 2026-04-20 01:08 | 33.97167 | -118.07775 | 7115 ft | 241 kts | 256° |
| 2026-04-20 01:08 | 33.96747 | -118.09714 | 6661 ft | 239 kts | 252° |
| 2026-04-20 01:08 | 33.96419 | -118.11682 | 6152 ft | 241 kts | 258° |
| 2026-04-20 01:09 | 33.96206 | -118.13686 | 5604 ft | 238 kts | 260° |
| 2026-04-20 01:09 | 33.96019 | -118.15632 | 5059 ft | 230 kts | 260° |
| 2026-04-20 01:09 | 33.95834 | -118.17506 | 4524 ft | 222 kts | 260° |
| 2026-04-20 01:09 | 33.95651 | -118.19330 | 3975 ft | 217 kts | 260° |
| 2026-04-20 01:10 | 33.95471 | -118.21113 | 3436 ft | 212 kts | 261° |
| 2026-04-20 01:10 | 33.95131 | -118.24497 | 3019 ft | 197 kts | 260° |
| 2026-04-20 01:10 | 33.94966 | -118.26129 | 3022 ft | 196 kts | 261° |
| 2026-04-20 01:11 | 33.94801 | -118.27772 | 2795 ft | 197 kts | 261° |
| 2026-04-20 01:11 | 33.94641 | -118.29389 | 2292 ft | 192 kts | 262° |
| 2026-04-20 01:11 | 33.94495 | -118.30964 | 1774 ft | 186 kts | 263° |
| 2026-04-20 01:11 | 33.94365 | -118.32503 | 1235 ft | 179 kts | 263° |
| 2026-04-20 01:12 | 33.94258 | -118.33948 | 898 ft | 169 kts | 264° |
| 2026-04-20 01:12 | 33.94145 | -118.35236 | 680 ft | 151 kts | 258° |
| 2026-04-20 01:12 | 33.93946 | -118.36421 | 481 ft | 140 kts | 260° |
| 2026-04-20 01:12 | 33.93817 | -118.37555 | 287 ft | 136 kts | 263° |
| 2026-04-20 01:13 | 33.93698 | -118.38640 | 129 ft | 128 kts | 266° |
| 2026-04-20 01:13 | 33.93607 | -118.39554 | 110 ft | 76 kts | 263° |
| 2026-04-20 01:13 | 33.93572 | -118.39941 | 112 ft | 30 kts | 265° |
| 2026-04-20 01:13 | 33.93578 | -118.40186 | 112 ft | 21 kts | 276° |
| 2026-04-20 01:14 | 33.93616 | -118.40340 | 108 ft | 20 kts | 282° |
| 2026-04-20 01:14 | 33.93615 | -118.40546 | 106 ft | 29 kts | 261° |
| 2026-04-20 01:14 | 33.93594 | -118.40753 | 106 ft | 27 kts | 266° |
| 2026-04-20 01:14 | 33.93650 | -118.40891 | 108 ft | 20 kts | 337° |
| 2026-04-20 01:15 | 33.93737 | -118.40908 | 106 ft | 0 kts | 353° |
| 2026-04-20 01:15 | 33.93740 | -118.40908 | 104 ft | 1 kts | 353° |
| 2026-04-20 01:15 | 33.93752 | -118.40910 | 105 ft | 6 kts | 353° |
| 2026-04-20 01:15 | 33.93831 | -118.40919 | 99 ft | 9 kts | 355° |
| 2026-04-20 01:16 | 33.93877 | -118.40832 | 97 ft | 9 kts | 84° |
| 2026-04-20 01:16 | 33.93882 | -118.40773 | 99 ft | 7 kts | 85° |
| 2026-04-20 01:16 | 33.93895 | -118.40697 | 99 ft | 10 kts | 45° |
| 2026-04-20 01:16 | 33.93948 | -118.40683 | 96 ft | 0 kts | 5° |
| 2026-04-20 01:19 | 33.93965 | -118.40657 | 97 ft | 0 kts | 354° |